Time;durP1;ratioP1;P1;durP2;ratioP2;P2;SDS_P1;SDS_P2;PMS_P1;PMS_P2;Temp;Humidity;BMP_temperature;BMP_pressure;BME280_temperature;BME280_humidity;BME280_pressure;Samples;Min_cycle;Max_cycle;Signal;HPM_P1;HPM_P2
2023/01/13 00:02:14;;;;;;;2.43;0.40;;;;;;;10.21;70.14;98392.38;5015284;28;20707;-55
2023/01/13 00:04:41;;;;;;;1.40;0.40;;;;;;;10.17;70.89;98394.47;5018638;28;20671;-55
2023/01/13 00:07:07;;;;;;;2.07;0.50;;;;;;;10.18;70.35;98391.72;5012990;28;20704;-53
2023/01/13 00:09:34;;;;;;;1.93;0.30;;;;;;;10.16;70.17;98364.97;5015192;28;20233;-54
2023/01/13 00:12:02;;;;;;;1.63;0.50;;;;;;;10.23;70.27;98380.00;5016127;28;20229;-53
2023/01/13 00:14:31;;;;;;;2.57;0.80;;;;;;;10.23;70.16;98373.00;5014078;28;20279;-55
2023/01/13 00:16:57;;;;;;;4.93;0.60;;;;;;;10.21;70.42;98361.09;5013619;28;20230;-54
2023/01/13 00:19:24;;;;;;;1.37;0.50;;;;;;;10.21;70.63;98374.94;5013105;28;20241;-54
2023/01/13 00:21:50;;;;;;;4.10;0.70;;;;;;;10.23;69.30;98362.56;5017708;28;20298;-52
2023/01/13 00:24:17;;;;;;;1.50;0.47;;;;;;;10.21;70.12;98376.75;5014315;28;20263;-55
2023/01/13 00:26:43;;;;;;;1.47;0.50;;;;;;;10.19;70.05;98358.63;5016011;28;20792;-55
2023/01/13 00:29:11;;;;;;;1.20;0.50;;;;;;;10.21;69.40;98356.69;5014090;28;20736;-55
2023/01/13 00:31:38;;;;;;;1.00;0.30;;;;;;;10.18;70.39;98357.81;5016329;28;20231;-55
2023/01/13 00:34:05;;;;;;;1.63;0.40;;;;;;;10.17;70.63;98348.34;5017080;28;20235;-55
2023/01/13 00:36:31;;;;;;;1.27;0.30;;;;;;;10.18;70.93;98354.38;5015172;28;21045;-54
2023/01/13 00:38:58;;;;;;;3.40;0.60;;;;;;;10.17;70.71;98382.28;5015786;28;20334;-55
2023/01/13 00:41:26;;;;;;;3.07;0.40;;;;;;;10.25;70.57;98352.78;5012423;28;20694;-53
2023/01/13 00:43:51;;;;;;;1.57;0.40;;;;;;;10.17;71.20;98340.53;5014300;28;20596;-55
2023/01/13 00:46:21;;;;;;;2.43;0.60;;;;;;;10.16;72.69;98345.88;5015227;28;20235;-53
2023/01/13 00:48:48;;;;;;;2.67;0.50;;;;;;;10.12;73.35;98339.34;5017250;28;20229;-54
2023/01/13 00:51:17;;;;;;;1.67;0.40;;;;;;;10.08;74.50;98357.09;5011642;28;20223;-54
2023/01/13 00:53:45;;;;;;;1.90;0.37;;;;;;;9.97;75.76;98360.81;5015228;28;20223;-54
2023/01/13 00:56:14;;;;;;;1.77;0.60;;;;;;;9.95;76.92;98360.13;5011679;28;20228;-54
2023/01/13 00:58:41;;;;;;;1.77;0.40;;;;;;;9.77;79.00;98349.75;5013455;28;20247;-54
2023/01/13 01:01:09;;;;;;;1.53;0.53;;;;;;;9.73;79.31;98351.00;5013146;28;20247;-55
2023/01/13 01:03:38;;;;;;;2.80;0.53;;;;;;;9.57;81.48;98354.31;5015043;28;20733;-55
2023/01/13 01:06:07;;;;;;;4.37;0.70;;;;;;;9.54;82.55;98362.44;5016334;28;20223;-55
2023/01/13 01:08:34;;;;;;;2.70;0.57;;;;;;;9.45;84.33;98358.97;5014924;28;20235;-54
2023/01/13 01:11:03;;;;;;;1.97;0.50;;;;;;;9.40;85.77;98372.41;5016526;28;20248;-53
2023/01/13 01:13:29;;;;;;;2.20;0.70;;;;;;;9.36;85.56;98344.22;5013462;28;20569;-54
2023/01/13 01:15:56;;;;;;;2.53;0.60;;;;;;;9.28;86.53;98345.78;5016761;28;21027;-56
2023/01/13 01:18:23;;;;;;;3.47;0.50;;;;;;;9.30;85.42;98343.84;5012325;28;20220;-54
2023/01/13 01:20:51;;;;;;;2.73;0.53;;;;;;;9.31;83.88;98321.22;5015118;28;20238;-55
2023/01/13 01:23:17;;;;;;;1.67;0.50;;;;;;;9.36;83.00;98352.84;5011780;28;20247;-54
2023/01/13 01:25:44;;;;;;;3.80;1.13;;;;;;;9.28;85.86;98337.16;5015781;28;20228;-54
2023/01/13 01:28:10;;;;;;;1.67;0.53;;;;;;;9.29;83.87;98337.00;5012672;28;20232;-52
2023/01/13 01:30:38;;;;;;;1.63;0.60;;;;;;;9.38;82.07;98337.88;5017433;28;20232;-54
2023/01/13 01:33:05;;;;;;;2.30;0.60;;;;;;;9.36;83.47;98350.25;5015991;28;20540;-55
2023/01/13 01:35:31;;;;;;;2.03;0.90;;;;;;;9.44;81.06;98354.72;5012835;28;20243;-53
2023/01/13 01:37:59;;;;;;;4.57;0.60;;;;;;;9.49;79.24;98342.06;5016763;28;20251;-54
2023/01/13 01:40:27;;;;;;;1.07;0.50;;;;;;;9.47;81.29;98343.16;5011625;28;20236;-55
2023/01/13 01:45:37;;;;;;;1.53;0.50;;;;;;;9.51;79.63;98334.91;5013634;28;20250;-54
2023/01/13 01:48:06;;;;;;;5.30;0.67;;;;;;;9.56;79.20;98335.25;5016501;28;20235;-54
2023/01/13 01:50:33;;;;;;;1.93;0.40;;;;;;;9.58;79.05;98356.75;5015179;28;20289;-52
2023/01/13 01:53:07;;;;;;;2.13;0.77;;;;;;;9.66;78.65;98347.38;5015859;28;20243;-55
2023/01/13 01:55:35;;;;;;;2.93;0.67;;;;;;;9.65;80.19;98350.94;5012654;28;20239;-53
2023/01/13 01:58:07;;;;;;;1.67;0.50;;;;;;;9.56;79.06;98316.22;5015184;28;20289;-56
2023/01/13 02:00:34;;;;;;;2.93;0.77;;;;;;;9.51;80.57;98311.47;5010166;28;20246;-56
2023/01/13 02:03:01;;;;;;;4.73;0.70;;;;;;;9.51;80.37;98324.50;5015634;28;20369;-53
2023/01/13 02:05:27;;;;;;;2.67;0.40;;;;;;;9.44;82.78;98332.06;5011385;28;20243;-53
2023/01/13 02:07:57;;;;;;;2.57;0.60;;;;;;;9.43;83.46;98321.81;5015435;28;20642;-55
2023/01/13 02:10:27;;;;;;;1.27;0.60;;;;;;;9.38;83.64;98321.47;5012585;28;20627;-54
2023/01/13 02:12:56;;;;;;;4.40;0.40;;;;;;;9.34;82.93;98330.53;5015426;28;20243;-56
2023/01/13 02:15:30;;;;;;;4.63;0.60;;;;;;;9.34;84.15;98312.31;5011306;28;20225;-55
2023/01/13 02:18:11;;;;;;;3.10;0.70;;;;;;;9.32;83.27;98312.44;5012954;28;20248;-53
2023/01/13 02:21:12;;;;;;;1.70;0.60;;;;;;;9.28;84.95;98309.34;5013806;28;20243;-55
2023/01/13 02:27:43;;;;;;;1.87;0.60;;;;;;;9.29;84.20;98310.13;5006352;28;20254;-52
2023/01/13 02:33:32;;;;;;;2.83;0.63;;;;;;;9.39;82.46;98261.38;4989082;28;20944;-52
2023/01/13 02:36:05;;;;;;;0.70;0.30;;;;;;;9.44;82.92;98285.19;5013298;28;20220;-52
2023/01/13 02:38:37;;;;;;;2.97;0.50;;;;;;;9.50;79.87;98272.53;5013605;28;20219;-54
2023/01/13 02:44:06;;;;;;;3.30;0.50;;;;;;;9.65;78.99;98270.16;5011657;28;20220;-54
2023/01/13 02:46:41;;;;;;;2.13;0.47;;;;;;;9.60;78.58;98286.28;5014037;28;20250;-54
2023/01/13 02:49:12;;;;;;;2.87;0.53;;;;;;;9.66;78.38;98290.03;5014843;28;20285;-55
2023/01/13 02:51:41;;;;;;;2.20;0.40;;;;;;;9.67;77.60;98273.44;5022169;28;20235;-54
2023/01/13 02:54:13;;;;;;;2.20;0.60;;;;;;;9.71;76.56;98280.81;5020248;28;20273;-55
2023/01/13 02:56:44;;;;;;;1.10;0.40;;;;;;;9.73;77.10;98278.03;5025548;28;20647;-55
2023/01/13 02:59:12;;;;;;;3.07;0.60;;;;;;;9.72;77.25;98281.59;5019921;28;20228;-55
2023/01/13 03:01:40;;;;;;;4.97;1.27;;;;;;;9.71;76.84;98298.22;5023288;28;20726;-54
2023/01/13 03:04:14;;;;;;;0.70;0.50;;;;;;;9.70;76.76;98273.13;5020908;28;20232;-56
2023/01/13 03:06:51;;;;;;;2.37;0.60;;;;;;;9.74;76.76;98277.06;5023114;28;20313;-56
2023/01/13 03:09:28;;;;;;;0.80;0.40;;;;;;;9.72;77.54;98285.03;5021633;28;20235;-56
2023/01/13 03:12:15;;;;;;;2.70;0.50;;;;;;;9.77;76.87;98268.94;5024644;28;20223;-56
2023/01/13 03:14:49;;;;;;;1.30;0.40;;;;;;;9.73;77.05;98268.44;5022286;28;20248;-54
2023/01/13 03:17:27;;;;;;;1.97;0.40;;;;;;;9.71;77.75;98261.72;5023199;28;20223;-54
2023/01/13 03:20:02;;;;;;;0.70;0.30;;;;;;;9.74;77.00;98262.25;5013064;28;20227;-53
2023/01/13 03:22:34;;;;;;;0.20;0.17;;;;;;;9.79;77.08;98251.34;5022677;28;20251;-54
2023/01/13 03:25:07;;;;;;;1.30;0.30;;;;;;;9.84;75.27;98259.53;5025722;28;20231;-55
2023/01/13 03:27:45;;;;;;;0.93;0.40;;;;;;;9.90;74.98;98266.72;5022396;28;20310;-54
2023/01/13 03:30:18;;;;;;;3.40;0.47;;;;;;;9.82;77.10;98238.00;5023394;28;20262;-53
2023/01/13 03:32:51;;;;;;;1.40;0.40;;;;;;;9.80;76.05;98239.16;5024310;28;20228;-56
2023/01/13 03:35:23;;;;;;;0.70;0.30;;;;;;;9.80;75.89;98231.31;5022197;28;20252;-56
2023/01/13 03:37:56;;;;;;;1.67;0.47;;;;;;;9.78;76.65;98239.28;5026227;28;20266;-55
2023/01/13 03:40:27;;;;;;;1.07;0.37;;;;;;;9.78;76.80;98241.91;5021942;28;20228;-55
2023/01/13 03:45:48;;;;;;;0.97;0.30;;;;;;;9.79;77.54;98240.94;5023106;28;20727;-54
2023/01/13 03:48:20;;;;;;;1.27;0.40;;;;;;;9.82;76.23;98248.44;5021926;28;20627;-56
2023/01/13 03:50:50;;;;;;;0.83;0.10;;;;;;;9.77;76.56;98237.66;5019378;28;20250;-56
2023/01/13 03:53:23;;;;;;;0.50;0.20;;;;;;;9.77;76.37;98234.25;5021936;28;20921;-55
2023/01/13 03:55:56;;;;;;;0.80;0.30;;;;;;;9.72;78.12;98238.13;5024762;28;20236;-56
2023/01/13 03:58:26;;;;;;;1.53;0.30;;;;;;;9.71;77.26;98246.09;5021871;28;20223;-55
2023/01/13 04:03:56;;;;;;;0.60;0.30;;;;;;;9.73;77.63;98223.28;5693544;23;20248;-60
2023/01/13 04:06:31;;;;;;;2.80;0.30;;;;;;;9.72;77.11;98216.44;4875825;29;20285;-58
2023/01/13 04:09:04;;;;;;;1.00;0.40;;;;;;;9.65;78.68;98228.47;4882088;29;20708;-59
2023/01/13 04:11:35;;;;;;;0.90;0.40;;;;;;;9.65;77.73;98223.25;4877137;29;20233;-59
2023/01/13 04:14:04;;;;;;;0.57;0.30;;;;;;;9.64;78.86;98226.81;4880777;29;20244;-58
2023/01/13 04:16:31;;;;;;;1.63;0.30;;;;;;;9.66;77.54;98228.31;4878198;29;20293;-59
2023/01/13 04:18:59;;;;;;;3.40;0.43;;;;;;;9.66;77.71;98214.47;4880636;29;20237;-59
2023/01/13 04:21:26;;;;;;;3.83;0.50;;;;;;;9.66;78.15;98217.91;4878448;29;20237;-59
2023/01/13 04:23:53;;;;;;;1.30;0.20;;;;;;;9.62;79.10;98220.97;4880533;29;20637;-59
2023/01/13 04:26:19;;;;;;;1.27;0.20;;;;;;;9.60;79.63;98219.31;4879072;29;20248;-59
2023/01/13 04:28:46;;;;;;;2.73;0.40;;;;;;;9.56;79.46;98228.41;4880821;29;20285;-59
2023/01/13 04:31:12;;;;;;;1.27;0.20;;;;;;;9.56;79.72;98231.03;5097083;23;20252;-61
2023/01/13 04:33:39;;;;;;;0.33;0.30;;;;;;;9.53;80.09;98222.72;4925029;28;20759;-61
2023/01/13 04:36:08;;;;;;;1.73;0.30;;;;;;;9.53;79.98;98222.72;4910909;28;20243;-62
2023/01/13 04:38:35;;;;;;;2.20;0.30;;;;;;;9.52;80.39;98208.88;4913591;29;20671;-61
2023/01/13 04:41:01;;;;;;;2.63;0.30;;;;;;;9.51;80.16;98224.66;4911990;29;20244;-61
2023/01/13 04:43:28;;;;;;;0.33;0.20;;;;;;;9.53;80.42;98226.16;4892450;29;20293;-61
2023/01/13 04:45:54;;;;;;;0.30;0.20;;;;;;;9.49;81.54;98216.16;4904541;23;20237;-60
2023/01/13 04:48:21;;;;;;;1.70;0.30;;;;;;;9.46;81.98;98209.50;4882010;29;20270;-59
2023/01/13 04:50:47;;;;;;;0.30;0.20;;;;;;;9.45;82.32;98218.28;4889262;29;20236;-60
2023/01/13 04:53:15;;;;;;;0.57;0.17;;;;;;;9.50;81.38;98225.63;4877713;29;20241;-59
2023/01/13 04:55:43;;;;;;;1.63;0.20;;;;;;;9.46;82.84;98222.53;4882891;29;20236;-58
2023/01/13 04:58:11;;;;;;;0.27;0.17;;;;;;;9.40;83.38;98210.91;4876983;29;20229;-59
2023/01/13 05:00:38;;;;;;;1.13;0.20;;;;;;;9.34;84.97;98211.53;4881794;29;20289;-59
2023/01/13 05:03:05;;;;;;;0.93;0.40;;;;;;;9.30;84.69;98190.19;4881431;29;20252;-59
2023/01/13 05:05:32;;;;;;;1.37;0.33;;;;;;;9.24;85.97;98189.97;4874819;29;20242;-59
2023/01/13 05:07:58;;;;;;;0.77;0.20;;;;;;;9.22;86.72;98205.75;4877663;29;20242;-59
2023/01/13 05:10:27;;;;;;;0.27;0.27;;;;;;;9.18;88.90;98186.19;4878691;29;20233;-59
2023/01/13 05:18:23;;;;;;;1.40;0.30;;;;;;;9.10;87.53;98188.75;4875380;29;20232;-59
2023/01/13 05:20:50;;;;;;;0.83;0.30;;;;;;;9.12;86.77;98179.00;4879433;29;20233;-59
2023/01/13 05:26:02;;;;;;;0.93;0.30;;;;;;;9.24;85.54;98180.38;4877276;29;20324;-59
2023/01/13 05:28:32;;;;;;;1.03;0.30;;;;;;;9.27;85.81;98182.69;4877166;29;20237;-59
2023/01/13 05:30:58;;;;;;;0.93;0.20;;;;;;;9.28;84.35;98168.69;4880040;29;20897;-59
2023/01/13 05:33:25;;;;;;;1.13;0.30;;;;;;;9.32;83.84;98179.59;4876193;29;20225;-59
2023/01/13 05:35:51;;;;;;;0.30;0.20;;;;;;;9.34;84.25;98176.84;4880691;29;20236;-59
2023/01/13 05:38:18;;;;;;;0.57;0.20;;;;;;;9.34;83.95;98167.25;4875086;29;20694;-61
2023/01/13 05:43:31;;;;;;;0.80;0.20;;;;;;;9.43;82.91;98168.13;4874762;29;20245;-59
2023/01/13 05:46:00;;;;;;;0.87;0.30;;;;;;;9.50;80.66;98171.75;4878013;29;20297;-59
2023/01/13 05:48:28;;;;;;;0.20;0.20;;;;;;;9.59;80.31;98173.38;4878114;29;20804;-59
2023/01/13 05:50:55;;;;;;;1.90;0.47;;;;;;;9.65;80.39;98168.53;4879343;29;20235;-59
2023/01/13 05:53:23;;;;;;;0.70;0.20;;;;;;;9.66;79.22;98163.19;4877602;29;20720;-59
2023/01/13 05:55:50;;;;;;;0.80;0.60;;;;;;;9.67;78.78;98167.41;4876941;29;20240;-59
2023/01/13 05:58:18;;;;;;;1.10;0.27;;;;;;;9.67;79.29;98175.22;4876169;29;20240;-59
2023/01/13 06:00:47;;;;;;;0.83;0.70;;;;;;;9.71;78.25;98167.91;4879522;29;20244;-59
2023/01/13 06:03:14;;;;;;;1.73;0.50;;;;;;;9.70;78.82;98174.91;4884078;29;20662;-59
2023/01/13 06:05:42;;;;;;;1.27;0.93;;;;;;;9.69;78.63;98186.31;4879491;29;20230;-59
2023/01/13 06:08:08;;;;;;;2.17;0.40;;;;;;;9.67;79.89;98171.78;4874047;29;20618;-60
2023/01/13 06:10:35;;;;;;;0.43;0.30;;;;;;;9.68;79.79;98176.03;4880399;29;20229;-59
2023/01/13 06:13:02;;;;;;;0.43;0.30;;;;;;;9.67;81.01;98175.22;4876113;29;20247;-59
2023/01/13 06:15:29;;;;;;;1.00;0.27;;;;;;;9.64;80.91;98190.34;4877799;29;20233;-59
2023/01/13 06:17:57;;;;;;;0.60;0.20;;;;;;;9.60;81.24;98175.03;4883191;29;20282;-59
2023/01/13 06:20:24;;;;;;;0.70;0.70;;;;;;;9.56;83.78;98183.31;4880411;29;20663;-59
2023/01/13 06:22:53;;;;;;;0.27;0.27;;;;;;;9.50;83.81;98184.78;4880884;29;20232;-59
2023/01/13 06:25:28;;;;;;;0.90;0.30;;;;;;;9.47;84.99;98186.84;4877345;29;20305;-59
2023/01/13 06:27:56;;;;;;;2.50;0.40;;;;;;;9.42;84.69;98193.34;4881922;29;20238;-59
2023/01/13 06:30:22;;;;;;;1.37;0.30;;;;;;;9.39;85.80;98191.03;4880054;29;20229;-58
2023/01/13 06:32:52;;;;;;;0.97;0.30;;;;;;;9.39;84.74;98193.66;4883297;29;20228;-59
2023/01/13 06:35:24;;;;;;;0.20;0.20;;;;;;;9.44;84.06;98195.81;4879032;29;20786;-59
2023/01/13 06:37:54;;;;;;;0.30;0.20;;;;;;;9.42;84.03;98203.75;4882896;29;20255;-59
2023/01/13 06:40:21;;;;;;;1.40;0.30;;;;;;;9.44;84.15;98194.00;4881474;29;20241;-60
2023/01/13 06:45:32;;;;;;;0.60;0.20;;;;;;;9.51;84.09;98196.00;4881858;29;20236;-59
2023/01/13 06:47:59;;;;;;;8.27;4.77;;;;;;;9.56;82.78;98193.75;4881539;29;20230;-60
2023/01/13 06:50:29;;;;;;;0.80;0.20;;;;;;;9.57;82.65;98203.19;4881011;29;20245;-59
2023/01/13 06:52:55;;;;;;;21.80;12.17;;;;;;;9.56;83.79;98199.75;4880676;29;20237;-58
2023/01/13 06:55:22;;;;;;;5.80;5.27;;;;;;;9.63;81.24;98199.97;4878592;29;20629;-59
2023/01/13 06:57:50;;;;;;;1.10;0.97;;;;;;;9.66;82.75;98191.84;4880581;29;20298;-60
2023/01/13 07:00:17;;;;;;;12.07;9.43;;;;;;;9.73;81.16;98210.25;4878306;29;20582;-59
2023/01/13 07:02:44;;;;;;;0.25;0.20;;;;;;;9.85;80.38;98210.81;4881219;29;20437;-57
2023/01/13 07:05:10;;;;;;;0.87;0.87;;;;;;;9.82;79.75;98206.72;4880075;29;20234;-58
2023/01/13 07:07:38;;;;;;;14.57;13.30;;;;;;;9.86;78.69;98189.81;4881791;29;20245;-58
2023/01/13 07:10:08;;;;;;;3.20;3.00;;;;;;;9.87;79.10;98203.66;4882593;29;20316;-59
2023/01/13 07:15:17;;;;;;;0.10;0.10;;;;;;;9.92;78.30;98197.97;4878199;29;20248;-58
2023/01/13 07:15:22;;;;;;;0.80;0.60;;;;;;;9.92;78.21;98187.53;4876895;29;20219;-58
2023/01/13 07:17:49;;;;;;;0.30;0.30;;;;;;;9.90;79.52;98188.50;4882534;29;20244;-59
2023/01/13 07:20:16;;;;;;;0.70;0.40;;;;;;;9.89;79.35;98196.50;4880960;29;20242;-58
2023/01/13 07:22:45;;;;;;;2.50;0.90;;;;;;;9.93;79.36;98204.81;4879731;29;20297;-58
2023/01/13 07:25:12;;;;;;;2.47;0.50;;;;;;;9.82;83.68;98208.53;4877042;29;20286;-58
2023/01/13 07:27:38;;;;;;;2.00;0.27;;;;;;;9.69;85.98;98235.00;4881719;29;20246;-57
2023/01/13 07:30:06;;;;;;;0.97;0.30;;;;;;;9.48;90.34;98237.97;4880597;29;20232;-58
2023/01/13 07:32:33;;;;;;;1.53;0.33;;;;;;;9.30;91.18;98212.78;4880771;29;20255;-58
2023/01/13 07:35:04;;;;;;;1.10;0.57;;;;;;;9.21;92.76;98218.91;4882590;29;20252;-58
2023/01/13 07:37:32;;;;;;;1.87;0.30;;;;;;;9.07;94.94;98217.69;4878543;29;20239;-59
2023/01/13 07:39:59;;;;;;;0.80;0.30;;;;;;;8.91;98.56;98237.41;4880253;29;20228;-58
2023/01/13 07:45:11;;;;;;;1.40;1.30;;;;;;;8.81;99.89;98260.94;4878773;29;20915;-59
2023/01/13 07:47:38;;;;;;;0.53;0.50;;;;;;;8.72;100.00;98282.63;4878888;29;20425;-59
2023/01/13 07:50:06;;;;;;;2.37;0.60;;;;;;;8.64;100.00;98283.34;4881160;29;20231;-59
2023/01/13 07:52:32;;;;;;;2.27;2.00;;;;;;;8.63;100.00;98273.09;4881818;29;20242;-59
2023/01/13 07:55:00;;;;;;;1.17;0.70;;;;;;;8.52;100.00;98272.34;4880528;29;20241;-59
2023/01/13 07:57:27;;;;;;;1.10;0.50;;;;;;;8.56;100.00;98263.28;4877519;29;20242;-58
2023/01/13 07:59:53;;;;;;;1.53;0.80;;;;;;;8.48;100.00;98296.16;4882449;29;20278;-58
2023/01/13 08:02:20;;;;;;;0.40;0.20;;;;;;;8.50;100.00;98281.25;4879640;29;20274;-58
2023/01/13 08:04:47;;;;;;;1.20;0.80;;;;;;;8.49;100.00;98303.84;4880354;29;20229;-59
2023/01/13 08:07:13;;;;;;;1.73;0.40;;;;;;;8.51;100.00;98295.88;4880068;29;20241;-59
2023/01/13 08:09:40;;;;;;;2.43;0.53;;;;;;;8.47;100.00;98317.94;4878656;29;20322;-59
2023/01/13 08:14:52;;;;;;;4.60;0.83;;;;;;;8.46;100.00;98402.16;4877878;29;20590;-58
2023/01/13 08:17:19;;;;;;;1.77;1.00;;;;;;;8.28;100.00;98424.50;4877449;29;20235;-58
2023/01/13 08:19:46;;;;;;;3.87;0.80;;;;;;;8.14;100.00;98430.13;4883050;29;20228;-58
2023/01/13 08:22:12;;;;;;;1.10;0.60;;;;;;;7.97;100.00;98437.69;4876245;29;20260;-58
2023/01/13 08:24:39;;;;;;;1.83;0.50;;;;;;;7.91;100.00;98434.81;4881962;29;20241;-59
2023/01/13 08:27:05;;;;;;;2.67;0.50;;;;;;;7.85;100.00;98432.78;4880163;29;20241;-58
2023/01/13 08:29:33;;;;;;;2.07;0.70;;;;;;;7.75;100.00;98425.81;4876011;29;20241;-58
2023/01/13 08:32:00;;;;;;;2.17;0.50;;;;;;;7.69;100.00;98410.78;4879378;29;20281;-57
2023/01/13 08:34:26;;;;;;;3.20;0.60;;;;;;;7.63;100.00;98417.34;4876726;29;20232;-58
2023/01/13 08:36:53;;;;;;;3.67;1.37;;;;;;;7.58;100.00;98411.75;4882009;29;20294;-59
2023/01/13 08:39:19;;;;;;;2.43;0.97;;;;;;;7.54;100.00;98425.97;4877663;29;20236;-58
2023/01/13 08:41:55;;;;;;;2.20;1.03;;;;;;;7.50;100.00;98416.78;4880465;29;20281;-58
2023/01/13 08:44:22;;;;;;;3.97;0.80;;;;;;;7.47;100.00;98417.88;4875574;29;20236;-59
2023/01/13 08:46:50;;;;;;;5.07;1.33;;;;;;;7.49;100.00;98418.56;4880055;29;20232;-58
2023/01/13 08:49:17;;;;;;;4.03;0.77;;;;;;;7.39;100.00;98408.19;4876690;29;20732;-58
2023/01/13 08:51:44;;;;;;;4.43;0.93;;;;;;;7.39;100.00;98417.75;4881498;29;20236;-58
2023/01/13 08:54:11;;;;;;;4.00;1.03;;;;;;;7.41;100.00;98402.88;4880937;29;20697;-59
2023/01/13 08:56:38;;;;;;;1.93;0.63;;;;;;;7.32;100.00;98408.88;4878303;29;20252;-58
2023/01/13 08:59:08;;;;;;;3.97;0.77;;;;;;;7.40;100.00;98424.59;4880273;29;20241;-58
2023/01/13 09:01:37;;;;;;;3.27;0.60;;;;;;;7.38;100.00;98416.13;4877976;29;20797;-58
2023/01/13 09:04:06;;;;;;;7.53;0.60;;;;;;;7.45;100.00;98417.19;4879572;29;20240;-58
2023/01/13 09:06:33;;;;;;;4.53;0.80;;;;;;;7.44;100.00;98433.72;4876406;29;20323;-59
2023/01/13 09:09:01;;;;;;;2.40;0.40;;;;;;;7.46;100.00;98411.03;4881639;29;20244;-59
2023/01/13 09:14:20;;;;;;;12.47;6.23;;;;;;;7.52;100.00;98413.09;4878243;29;20244;-59
2023/01/13 09:16:47;;;;;;;2.33;0.70;;;;;;;7.47;100.00;98417.88;4878277;29;20245;-58
2023/01/13 09:19:15;;;;;;;2.53;0.50;;;;;;;7.53;100.00;98416.53;4876401;29;20234;-58
2023/01/13 09:21:41;;;;;;;1.90;0.60;;;;;;;7.59;100.00;98408.19;4877690;29;20245;-59
2023/01/13 09:24:09;;;;;;;3.17;0.47;;;;;;;7.59;100.00;98412.56;4875622;29;20782;-58
2023/01/13 09:26:37;;;;;;;5.43;0.70;;;;;;;7.65;100.00;98420.63;4881794;29;20296;-59
2023/01/13 09:29:04;;;;;;;2.37;0.60;;;;;;;7.59;100.00;98435.94;4879163;29;20300;-57
2023/01/13 09:31:33;;;;;;;2.50;0.60;;;;;;;7.58;100.00;98429.09;4875359;29;20317;-58
2023/01/13 09:36:45;;;;;;;2.80;0.70;;;;;;;7.72;100.00;98441.66;4877586;29;20320;-58
2023/01/13 09:39:12;;;;;;;4.63;0.97;;;;;;;7.75;98.28;98446.59;4874156;29;20238;-59
2023/01/13 09:44:37;;;;;;;4.67;0.80;;;;;;;7.65;99.72;98445.78;4875284;29;20241;-57
2023/01/13 09:47:10;;;;;;;2.93;0.67;;;;;;;7.53;100.00;98465.88;4876830;29;20321;-58
2023/01/13 09:49:39;;;;;;;3.80;0.70;;;;;;;7.35;100.00;98457.94;4876563;29;20240;-57
2023/01/13 09:52:13;;;;;;;1.80;0.50;;;;;;;7.42;100.00;98463.41;4880439;29;20292;-58
2023/01/13 09:54:42;;;;;;;2.33;0.60;;;;;;;7.41;100.00;98464.34;4876477;29;20232;-58
2023/01/13 09:57:11;;;;;;;1.57;0.73;;;;;;;7.20;100.00;98468.69;4876855;29;20224;-58
2023/01/13 09:59:38;;;;;;;7.77;1.07;;;;;;;7.17;100.00;98489.72;4877245;29;20237;-57
2023/01/13 10:02:21;;;;;;;4.57;0.90;;;;;;;7.21;100.00;98506.69;4875959;29;20221;-57
2023/01/13 10:05:02;;;;;;;3.33;1.07;;;;;;;7.15;100.00;98514.16;4872728;29;20245;-57
2023/01/13 10:07:34;;;;;;;3.63;0.80;;;;;;;7.07;100.00;98513.03;4874752;29;20237;-57
2023/01/13 10:10:03;;;;;;;5.00;0.70;;;;;;;7.01;100.00;98547.31;4878494;29;20746;-57
2023/01/13 10:15:16;;;;;;;7.00;0.77;;;;;;;6.95;100.00;98537.44;4875215;29;20228;-57
2023/01/13 10:17:49;;;;;;;1.47;0.40;;;;;;;7.00;100.00;98522.31;4875770;29;20236;-55
2023/01/13 10:20:21;;;;;;;4.90;0.70;;;;;;;7.01;100.00;98523.13;4874773;29;20238;-57
2023/01/13 10:23:02;;;;;;;2.97;0.60;;;;;;;6.98;100.00;98516.41;4876499;29;20673;-58
2023/01/13 10:25:42;;;;;;;4.90;0.60;;;;;;;6.93;100.00;98510.81;4875250;29;20237;-58
2023/01/13 10:28:12;;;;;;;3.40;0.67;;;;;;;6.86;100.00;98525.28;4874298;29;20237;-56
2023/01/13 10:30:41;;;;;;;5.70;0.80;;;;;;;6.83;100.00;98523.75;4877192;29;20285;-57
2023/01/13 10:33:12;;;;;;;4.20;0.70;;;;;;;6.88;100.00;98511.19;4876830;29;20328;-58
2023/01/13 10:35:50;;;;;;;5.22;0.80;;;;;;;6.89;100.00;98501.66;4872429;29;20434;-57
2023/01/13 10:38:20;;;;;;;7.30;0.80;;;;;;;6.83;100.00;98508.19;4874657;29;20270;-56
2023/01/13 10:40:49;;;;;;;3.50;0.60;;;;;;;6.98;100.00;98500.03;4876764;29;20273;-56
2023/01/13 10:43:16;;;;;;;7.03;0.80;;;;;;;6.96;100.00;98522.72;4874538;29;20244;-57
2023/01/13 10:45:51;;;;;;;4.03;0.87;;;;;;;6.86;100.00;98528.66;4877031;29;20565;-57
2023/01/13 10:48:18;;;;;;;3.13;1.00;;;;;;;6.91;100.00;98529.09;4876252;29;20252;-58
2023/01/13 10:50:48;;;;;;;3.83;0.77;;;;;;;6.93;100.00;98537.59;4881089;29;20709;-57
2023/01/13 10:53:19;;;;;;;4.83;0.87;;;;;;;6.97;100.00;98538.13;4875586;29;20245;-57
2023/01/13 10:55:59;;;;;;;4.27;0.87;;;;;;;6.90;100.00;98548.22;4880680;29;20232;-58
2023/01/13 10:58:26;;;;;;;3.07;0.50;;;;;;;7.00;100.00;98539.66;4875101;29;20320;-56
2023/01/13 11:01:00;;;;;;;2.73;1.07;;;;;;;7.02;100.00;98548.94;4881390;29;20233;-57
2023/01/13 11:03:36;;;;;;;5.53;0.80;;;;;;;7.12;100.00;98540.38;4877139;29;20313;-58
2023/01/13 11:06:03;;;;;;;1.60;0.90;;;;;;;7.18;100.00;98535.50;4881695;29;20237;-58
2023/01/13 11:08:41;;;;;;;3.07;0.70;;;;;;;7.01;100.00;98549.91;4877569;29;20294;-58
2023/01/13 11:11:26;;;;;;;3.80;0.60;;;;;;;7.25;99.06;98559.16;4877750;29;20697;-59
2023/01/13 11:16:41;;;;;;;2.00;0.70;;;;;;;7.37;98.05;98560.69;4877940;29;20724;-58
2023/01/13 11:19:14;;;;;;;2.77;0.60;;;;;;;7.51;97.22;98545.72;4883088;29;20609;-59
2023/01/13 11:21:49;;;;;;;1.20;0.30;;;;;;;7.71;94.44;98558.75;4878672;29;20233;-58
2023/01/13 11:24:23;;;;;;;1.53;0.40;;;;;;;7.39;95.85;98570.97;4876755;29;20745;-58
2023/01/13 11:26:56;;;;;;;1.40;0.40;;;;;;;7.73;89.29;98581.03;4883328;29;20297;-58
2023/01/13 11:29:31;;;;;;;1.43;0.40;;;;;;;7.64;89.97;98590.44;4876745;29;20236;-58
2023/01/13 11:32:08;;;;;;;2.87;0.40;;;;;;;7.32;91.73;98603.59;4880271;29;20236;-58
2023/01/13 11:34:37;;;;;;;2.50;0.90;;;;;;;7.42;87.76;98577.66;4879052;29;20260;-58
2023/01/13 11:37:12;;;;;;;0.67;0.37;;;;;;;7.26;90.59;98578.16;4879287;29;20229;-59
2023/01/13 11:39:48;;;;;;;3.50;0.50;;;;;;;7.39;90.97;98613.31;4877932;29;20249;-59
2023/01/13 11:42:23;;;;;;;7.10;1.10;;;;;;;7.43;89.64;98582.72;4877796;29;20638;-59
2023/01/13 11:45:00;;;;;;;8.47;1.00;;;;;;;7.57;89.26;98596.28;4881462;29;20244;-58
2023/01/13 11:47:27;;;;;;;4.27;0.77;;;;;;;7.88;87.54;98615.25;4877802;29;20574;-59
2023/01/13 11:49:54;;;;;;;8.20;2.20;;;;;;;7.62;86.75;98596.72;4882144;29;20237;-59
2023/01/13 11:52:27;;;;;;;10.30;1.10;;;;;;;7.71;87.13;98613.31;4875763;29;20241;-60
2023/01/13 11:55:06;;;;;;;8.43;1.10;;;;;;;7.81;85.20;98622.75;4879708;29;20324;-59
2023/01/13 11:57:53;;;;;;;9.73;1.13;;;;;;;7.93;82.68;98599.25;4879473;29;20240;-59
2023/01/13 12:00:36;;;;;;;7.43;1.40;;;;;;;8.52;82.95;98601.88;4877504;29;20582;-59
2023/01/13 12:03:23;;;;;;;7.83;2.50;;;;;;;8.58;83.68;98593.53;4879835;29;20874;-58
2023/01/13 12:06:02;;;;;;;6.07;3.03;;;;;;;8.59;82.33;98569.16;4874904;29;20241;-59
2023/01/13 12:08:48;;;;;;;7.33;1.60;;;;;;;8.47;83.78;98575.47;4877561;29;20247;-60
2023/01/13 12:11:24;;;;;;;7.10;1.70;;;;;;;8.54;83.85;98540.97;4878103;29;20239;-60
2023/01/13 12:14:09;;;;;;;9.00;1.20;;;;;;;8.53;85.59;98561.91;4881289;29;20237;-60
2023/01/13 12:16:45;;;;;;;7.80;1.40;;;;;;;8.65;81.35;98560.00;4879602;29;20646;-60
2023/01/13 12:19:26;;;;;;;6.13;1.30;;;;;;;8.64;80.66;98556.56;4881173;29;20228;-60
2023/01/13 12:22:12;;;;;;;5.33;0.97;;;;;;;8.47;83.80;98570.25;4879774;29;20241;-59
2023/01/13 12:24:46;;;;;;;7.23;1.23;;;;;;;8.40;84.94;98575.19;4879101;29;20237;-60
2023/01/13 12:27:20;;;;;;;12.13;1.30;;;;;;;8.25;82.82;98560.00;4879265;29;20303;-60
2023/01/13 12:29:50;;;;;;;5.27;1.20;;;;;;;8.12;83.79;98565.47;4880324;29;20232;-60
2023/01/13 12:32:20;;;;;;;6.43;1.30;;;;;;;8.15;83.03;98566.97;4877831;29;20647;-59
2023/01/13 12:35:05;;;;;;;8.60;1.37;;;;;;;8.24;83.48;98549.75;4879863;29;20229;-60
2023/01/13 12:37:37;;;;;;;6.63;1.00;;;;;;;8.07;82.98;98559.88;4878230;29;20244;-60
2023/01/13 12:40:21;;;;;;;7.57;1.20;;;;;;;8.26;83.55;98572.03;4881338;29;20234;-61
2023/01/13 12:45:38;;;;;;;6.87;1.43;;;;;;;8.08;82.94;98566.72;4877871;29;20241;-60
2023/01/13 12:48:06;;;;;;;8.80;1.73;;;;;;;8.16;81.67;98570.41;4879238;29;20635;-59